x

Portlock Bank- 76nm Ene Of Kodiak, Ak (46080) Wave Buoy

6:50pm - Sat 18th Feb 2017 All times are AKST. -9 hours from GMT.

  • Sig Wave height 4.9ft
  • Peak Period 11s
  • Average Period 7s
  • Wind
    11mph, 13mph gusts
  • Sea Temp 43°f
  • Air Temp 37°f
  • Sea Pressure 1003.3mb
  • Portlock Bank- 76nm Ene Of Kodiak, Ak
  • Portlock Bank- 76nm Ene Of Kodiak, Ak

More Historic Weather Station data

Upgrade to MSW Pro to gain access to the past 30 days of data for over 8000 Wavebouys and Weather Stations around the globe.

Join Pro

Comparision Forecast

View Surf forecast
   
Sat 02/18 6:50pm 5ft 11s 7s 11 13 mph 1003.3mb 43f 37f
5:50pm 4.5ft 11s 6s 11 13 mph 1003.3mb 43f 37f
4:50pm 5ft 11s 7s 11 16 mph 1003.3mb 43f 37f
3:50pm 5ft 11s 7s 11 16 mph 1003.2mb 43f 37f
2:50pm 5ft 11s 7s 11 16 mph 1003.2mb 43f 37f
1:50pm 4.5ft 10s 7s 7 9 mph 1003.3mb 43f 37f
12:50pm 5ft 11s 7s 9
mph
1003.3mb 43f 37f
11:50am 5ft 11s 7s 9 11 mph 1003.1mb 43f 36f
Fri 02/17 9:50pm 5.5ft 9s 5s 16 20 mph 999.8mb 43f 38f
8:50pm 5ft 10s 6s 11 16 mph 999.5mb 43f 38f
7:50pm 5.5ft 10s 6s 11 13 mph 999mb 43f 38f
6:50pm 6ft 10s 6s 11
mph
998.6mb 43f 38f
5:50pm 6.5ft 10s 6s 11 16 mph 998.2mb 43f 38f
4:50pm 6.5ft 10s 6s 16 20 mph 998.1mb 43f 38f
3:50pm 7ft 10s 6s 13 18 mph 998.1mb 43f 38f
2:50pm 7ft 11s 6s 11 13 mph 998.2mb 43f 39f
1:50pm 6.5ft 10s 6s 16 20 mph 998.1mb 43f 39f
12:50pm 6.5ft 10s 6s 11 18 mph 998mb 43f 38f
11:50am 7ft 9s 6s 18 20 mph 997.5mb 43f 37f
10:50am 7ft 10s 6s 18 22 mph 996.8mb 43f 38f
Thu 02/16 5:50pm 10.5ft 11s 6s 22 29 mph 986.5mb 42f 37f
4:50pm 11ft 11s 7s 25 29 mph 985.7mb 42f 39f
3:50pm 11ft 11s 7s 20 25 mph 985.4mb 42f 39f
2:50pm 11ft 11s 7s 18 22 mph 985.1mb 42f 37f
1:50pm 12ft 11s 7s 11 16 mph 984.8mb 42f 36f
12:50pm 12ft 11s 8s 20 25 mph 984.2mb 42f 40f
11:50am 11.5ft 11s 7s 18 22 mph 983.7mb 42f 39f
10:50am 12.5ft 11s 7s 22 27 mph 982.9mb 43f 40f
9:50am 11ft 10s 7s 25 29 mph 982.3mb 43f 38f
8:50am 13ft 11s 7s 25 31 mph 981.9mb 43f 39f
7:50am 14ft 11s 7s 27 34 mph 981.3mb 43f 40f
6:50am 15ft 11s 7s 29 36 mph 981.2mb 43f 40f
5:50am 14ft 11s 7s 31 40 mph 981.1mb 43f 38f
4:50am 14ft 10s 7s 31 40 mph 981.2mb 43f 40f
3:50am 12ft 11s 6s 29 36 mph 981.6mb 42f 40f
2:50am 12.5ft 10s 6s 29 36 mph 981.7mb 42f 40f
1:50am 12ft 11s 6s 29 36 mph 982mb 42f 40f
12:50am 12ft 11s 7s 27 34 mph 982.1mb 42f 40f
Wed 02/15 11:50pm 12ft 11s 7s 27 34 mph 982.4mb 43f 39f
10:50pm 11ft 11s 7s 27 31 mph 982.3mb 43f 39f